createdAt,value
2022-08-30T00:02:01.329Z,21.90
2022-08-30T00:04:30.939Z,22.10
2022-08-30T00:06:59.049Z,21.20
2022-08-30T00:09:27.184Z,21.67
2022-08-30T00:11:55.284Z,21.10
2022-08-30T00:14:23.399Z,23.47
2022-08-30T00:16:51.514Z,22.87
2022-08-30T00:19:19.575Z,23.00
2022-08-30T00:21:50.185Z,23.03
2022-08-30T00:24:18.529Z,22.70
2022-08-30T00:26:46.632Z,21.10
2022-08-30T00:29:14.784Z,20.50
2022-08-30T00:31:42.898Z,21.47
2022-08-30T00:34:11.026Z,21.60
2022-08-30T00:36:39.186Z,20.80
2022-08-30T00:39:08.658Z,20.47
2022-08-30T00:41:37.345Z,22.03
2022-08-30T00:44:05.783Z,21.13
2022-08-30T00:46:33.963Z,19.67
2022-08-30T00:49:06.143Z,19.80
2022-08-30T00:51:34.819Z,18.90
2022-08-30T00:54:03.530Z,19.30
2022-08-30T00:56:35.117Z,20.13
2022-08-30T00:59:05.709Z,20.57
2022-08-30T01:01:36.051Z,19.67
2022-08-30T01:04:06.933Z,19.40
2022-08-30T01:06:35.127Z,20.53
2022-08-30T01:09:04.994Z,20.90
2022-08-30T01:11:37.881Z,18.77
2022-08-30T01:14:07.771Z,19.77
2022-08-30T01:16:37.003Z,19.70
2022-08-30T01:19:07.511Z,20.17
2022-08-30T01:21:44.680Z,20.17
2022-08-30T01:24:15.051Z,19.87
2022-08-30T01:26:43.164Z,20.50
2022-08-30T01:29:14.804Z,20.37
2022-08-30T01:31:43.019Z,19.83
2022-08-30T01:34:12.516Z,22.27
2022-08-30T01:36:45.296Z,20.50
2022-08-30T01:39:17.200Z,20.17
2022-08-30T01:41:45.553Z,21.40
2022-08-30T01:44:14.738Z,19.93
2022-08-30T01:46:45.799Z,20.43
2022-08-30T01:49:16.024Z,20.83
2022-08-30T01:51:45.170Z,21.23
2022-08-30T01:54:14.727Z,25.17
2022-08-30T01:56:42.942Z,20.50
2022-08-30T01:59:11.183Z,21.23
2022-08-30T02:01:40.045Z,23.17
2022-08-30T02:04:10.101Z,20.57
2022-08-30T02:06:40.238Z,22.53
2022-08-30T02:09:09.168Z,23.83
2022-08-30T02:11:39.367Z,23.57
2022-08-30T02:14:07.782Z,22.87
2022-08-30T02:16:37.895Z,23.27
2022-08-30T02:19:06.052Z,22.50
2022-08-30T02:21:34.450Z,24.07
2022-08-30T02:24:02.543Z,25.80
2022-08-30T02:26:32.057Z,25.53
2022-08-30T02:29:01.535Z,27.30
2022-08-30T02:31:29.663Z,24.50
2022-08-30T02:33:58.090Z,25.33
2022-08-30T02:36:26.266Z,25.13
2022-08-30T02:38:54.840Z,24.80
2022-08-30T02:41:23.587Z,23.97
2022-08-30T02:43:52.392Z,25.00
2022-08-30T02:46:21.969Z,25.43
2022-08-30T02:48:50.103Z,24.80
2022-08-30T02:51:18.270Z,27.10
2022-08-30T02:53:47.120Z,27.47
2022-08-30T02:56:16.231Z,27.87
2022-08-30T02:58:45.264Z,25.00
2022-08-30T03:01:16.146Z,26.63
2022-08-30T03:03:47.024Z,23.17
2022-08-30T03:06:15.988Z,24.53
2022-08-30T03:08:44.160Z,24.23
2022-08-30T03:11:13.786Z,23.70
2022-08-30T03:13:42.229Z,24.63
2022-08-30T03:16:10.494Z,24.73
2022-08-30T03:18:38.671Z,25.40
2022-08-30T03:21:13.015Z,22.80
2022-08-30T03:23:42.571Z,23.70
2022-08-30T03:26:12.706Z,22.80
2022-08-30T03:28:40.883Z,23.90
2022-08-30T03:31:09.639Z,24.20
2022-08-30T03:33:40.042Z,24.43
2022-08-30T03:36:09.159Z,23.33
2022-08-30T03:38:39.417Z,23.93
2022-08-30T03:41:07.990Z,24.20
2022-08-30T03:43:37.445Z,23.67
2022-08-30T03:46:07.836Z,24.30
2022-08-30T03:48:36.149Z,23.43
2022-08-30T03:51:05.993Z,23.53
2022-08-30T03:53:34.418Z,23.67
2022-08-30T03:56:04.988Z,26.20
2022-08-30T03:58:34.482Z,26.30
2022-08-30T04:01:02.711Z,24.30
2022-08-30T04:03:30.839Z,24.67
2022-08-30T04:06:00.584Z,25.50
2022-08-30T04:08:29.032Z,26.03
2022-08-30T04:10:57.408Z,25.73
2022-08-30T04:13:26.863Z,24.50
2022-08-30T04:15:54.982Z,25.90
2022-08-30T04:18:23.808Z,26.13
2022-08-30T04:20:52.691Z,25.47
2022-08-30T04:23:21.227Z,25.13
2022-08-30T04:25:49.355Z,26.43
2022-08-30T04:28:17.527Z,27.47
2022-08-30T04:30:46.998Z,26.17
2022-08-30T04:33:16.429Z,28.10
2022-08-30T04:35:46.415Z,27.20
2022-08-30T04:38:16.010Z,25.27
2022-08-30T04:40:45.614Z,27.77
2022-08-30T04:43:13.894Z,26.80
2022-08-30T04:45:43.077Z,26.30
2022-08-30T04:48:12.704Z,26.90
2022-08-30T04:50:41.084Z,28.37
2022-08-30T04:53:13.642Z,27.97
2022-08-30T04:55:43.371Z,26.63
2022-08-30T04:58:11.551Z,27.67
2022-08-30T05:00:42.133Z,26.47
2022-08-30T05:03:10.480Z,25.70
2022-08-30T05:05:43.064Z,24.93
2022-08-30T05:08:13.854Z,25.77
2022-08-30T05:10:43.597Z,23.67
2022-08-30T05:13:11.882Z,28.23
2022-08-30T05:15:40.401Z,26.53
2022-08-30T05:18:11.554Z,23.80
2022-08-30T05:20:44.353Z,24.67
2022-08-30T05:23:12.760Z,23.87
2022-08-30T05:25:42.586Z,23.13
2022-08-30T05:28:10.782Z,25.73
2022-08-30T05:30:39.411Z,26.53
2022-08-30T05:33:07.718Z,28.30
2022-08-30T05:35:35.861Z,26.43
2022-08-30T05:38:05.365Z,25.37
2022-08-30T05:40:35.187Z,24.83
2022-08-30T05:43:03.344Z,26.07
2022-08-30T05:45:31.538Z,23.00
2022-08-30T05:47:59.720Z,23.93
2022-08-30T05:50:27.815Z,23.97
2022-08-30T05:52:56.943Z,26.90
2022-08-30T05:55:26.433Z,23.70
2022-08-30T05:57:54.566Z,23.80
2022-08-30T06:00:23.683Z,23.30
2022-08-30T06:02:55.090Z,24.77
2022-08-30T06:05:23.263Z,24.70
2022-08-30T06:07:51.491Z,23.40
2022-08-30T06:10:19.798Z,23.70
2022-08-30T06:12:49.287Z,23.53
2022-08-30T06:15:17.725Z,24.37
2022-08-30T06:17:45.863Z,27.53
2022-08-30T06:20:14.115Z,26.80
2022-08-30T06:22:42.232Z,25.43
2022-08-30T06:25:11.709Z,23.63
2022-08-30T06:27:39.938Z,22.83
2022-08-30T06:30:11.625Z,26.07
2022-08-30T06:32:40.444Z,24.47
2022-08-30T06:35:09.782Z,25.07
2022-08-30T06:37:37.891Z,25.30
2022-08-30T06:40:07.086Z,26.03
2022-08-30T06:42:35.314Z,35.40
2022-08-30T06:45:10.461Z,32.40
2022-08-30T06:47:41.638Z,32.53
2022-08-30T06:50:14.355Z,30.87
2022-08-30T06:52:43.839Z,32.47
2022-08-30T06:55:12.396Z,34.87
2022-08-30T06:57:40.864Z,34.13
2022-08-30T07:00:12.096Z,31.10
2022-08-30T07:02:41.969Z,31.13
2022-08-30T07:05:18.029Z,31.97
2022-08-30T07:07:47.005Z,32.57
2022-08-30T07:10:16.341Z,30.47
2022-08-30T07:12:44.428Z,34.17
2022-08-30T07:15:13.043Z,28.07
2022-08-30T07:18:00.255Z,29.10
2022-08-30T07:20:28.387Z,29.10
2022-08-30T07:23:09.224Z,29.37
2022-08-30T07:25:37.583Z,28.13
2022-08-30T07:28:06.702Z,25.67
2022-08-30T07:30:36.230Z,27.13
2022-08-30T07:33:06.222Z,28.23
2022-08-30T07:35:34.503Z,25.13
2022-08-30T07:38:02.614Z,26.27
2022-08-30T07:40:30.793Z,25.47
2022-08-30T07:43:02.068Z,26.77
2022-08-30T07:45:30.299Z,29.33
2022-08-30T07:47:58.733Z,27.83
2022-08-30T07:50:28.201Z,27.80
2022-08-30T07:52:56.276Z,27.47
2022-08-30T07:55:24.813Z,26.43
2022-08-30T07:57:52.970Z,24.73
2022-08-30T08:00:21.267Z,32.60
2022-08-30T08:02:49.567Z,24.03
2022-08-30T08:05:20.123Z,23.93
2022-08-30T08:07:51.442Z,24.63
2022-08-30T08:10:19.623Z,25.10
2022-08-30T08:12:48.506Z,25.70
2022-08-30T08:15:16.622Z,26.43
2022-08-30T08:17:44.734Z,27.30
2022-08-30T08:20:12.927Z,24.90
2022-08-30T08:22:41.034Z,25.63
2022-08-30T08:25:10.911Z,28.57
2022-08-30T08:27:39.018Z,27.30
2022-08-30T08:30:08.287Z,25.03
2022-08-30T08:32:36.443Z,28.40
2022-08-30T08:35:05.267Z,26.63
2022-08-30T08:37:33.394Z,27.90
2022-08-30T08:40:01.607Z,23.43
2022-08-30T08:42:41.506Z,25.47
2022-08-30T08:45:15.250Z,24.27
2022-08-30T08:47:54.344Z,25.37
2022-08-30T08:50:24.674Z,21.53
2022-08-30T08:53:20.523Z,30.47
2022-08-30T08:55:59.135Z,24.87
2022-08-30T08:58:32.298Z,24.17
2022-08-30T09:01:00.622Z,25.67
2022-08-30T09:03:30.447Z,24.27
2022-08-30T09:05:59.237Z,25.47
2022-08-30T09:08:27.957Z,27.33
2022-08-30T09:11:01.594Z,26.80
2022-08-30T09:13:31.165Z,25.90
2022-08-30T09:16:00.645Z,24.53
2022-08-30T09:18:45.594Z,27.27
2022-08-30T09:21:14.954Z,28.30
2022-08-30T09:23:50.817Z,27.30
2022-08-30T09:26:30.808Z,27.00
2022-08-30T09:29:01.111Z,26.97
2022-08-30T09:31:32.099Z,27.33
2022-08-30T09:34:03.437Z,25.63
2022-08-30T09:36:36.257Z,25.10
2022-08-30T09:39:06.962Z,26.40
2022-08-30T09:41:42.602Z,24.83
2022-08-30T09:44:16.860Z,21.57
2022-08-30T09:46:48.691Z,24.40
2022-08-30T09:49:31.139Z,26.43
2022-08-30T09:52:10.603Z,25.70
2022-08-30T09:54:46.508Z,25.67
2022-08-30T09:57:33.948Z,26.50
2022-08-30T10:00:17.361Z,27.07
2022-08-30T10:02:57.998Z,26.00
2022-08-30T10:05:32.511Z,26.87
2022-08-30T10:08:12.684Z,25.80
2022-08-30T10:10:50.770Z,26.60
2022-08-30T10:13:37.214Z,24.57
2022-08-30T10:16:20.344Z,25.83
2022-08-30T10:18:55.584Z,24.33
2022-08-30T10:21:29.365Z,26.80
2022-08-30T10:24:02.363Z,23.40
2022-08-30T10:26:36.849Z,26.33
2022-08-30T10:29:11.989Z,24.37
2022-08-30T10:31:48.605Z,24.27
2022-08-30T10:34:21.922Z,22.97
2022-08-30T10:36:57.539Z,23.67
2022-08-30T10:39:31.097Z,23.93
2022-08-30T10:42:07.950Z,21.80
2022-08-30T10:44:42.381Z,24.10
2022-08-30T10:47:24.787Z,23.07
2022-08-30T10:50:03.623Z,21.80
2022-08-30T10:52:37.645Z,23.30
2022-08-30T10:55:10.715Z,24.57
2022-08-30T10:57:42.929Z,23.90
2022-08-30T11:00:15.260Z,21.77
2022-08-30T11:03:29.157Z,24.07
2022-08-30T11:06:09.873Z,22.20
2022-08-30T11:09:02.309Z,22.23
2022-08-30T11:11:43.494Z,20.73
2022-08-30T11:14:16.816Z,20.10
2022-08-30T11:16:48.418Z,21.67
2022-08-30T11:19:22.206Z,21.03
2022-08-30T11:21:52.287Z,20.47
2022-08-30T11:24:22.929Z,19.27
2022-08-30T11:27:03.451Z,19.87
2022-08-30T11:29:40.115Z,20.47
2022-08-30T11:32:59.659Z,20.10
2022-08-30T11:35:48.153Z,20.87
2022-08-30T11:39:05.788Z,19.73
2022-08-30T11:41:41.920Z,19.13
2022-08-30T11:44:27.758Z,17.20
2022-08-30T11:46:58.555Z,17.70
2022-08-30T11:49:46.277Z,17.60
2022-08-30T11:52:41.393Z,19.33
2022-08-30T11:55:27.936Z,16.27
2022-08-30T11:58:07.644Z,17.23
2022-08-30T12:00:42.198Z,18.13
2022-08-30T12:03:31.363Z,16.80
2022-08-30T12:06:02.071Z,16.63
2022-08-30T12:08:58.010Z,16.13
2022-08-30T12:11:55.802Z,17.20
2022-08-30T12:14:52.107Z,16.13
2022-08-30T12:17:45.415Z,14.77
2022-08-30T12:20:22.498Z,15.10
2022-08-30T12:22:51.821Z,16.67
2022-08-30T12:25:26.214Z,14.50
2022-08-30T12:28:14.701Z,15.30
2022-08-30T12:30:46.735Z,16.00
2022-08-30T12:33:29.301Z,16.20
2022-08-30T12:35:59.732Z,15.87
2022-08-30T12:38:29.794Z,14.57
2022-08-30T12:41:00.806Z,15.83
2022-08-30T12:43:40.415Z,16.90
2022-08-30T12:46:17.430Z,15.30
2022-08-30T12:48:46.612Z,15.23
2022-08-30T12:51:38.043Z,15.53
2022-08-30T12:54:16.513Z,15.90
2022-08-30T12:56:57.481Z,16.27
2022-08-30T12:59:52.821Z,15.73
2022-08-30T13:02:27.375Z,16.50
2022-08-30T13:04:57.079Z,15.80
2022-08-30T13:07:32.577Z,18.23
2022-08-30T13:10:11.956Z,16.13
2022-08-30T13:12:40.463Z,17.20
2022-08-30T13:15:28.289Z,17.43
2022-08-30T13:18:27.617Z,18.37
2022-08-30T13:21:12.663Z,20.03
2022-08-30T13:23:40.870Z,18.17
2022-08-30T13:26:09.596Z,17.20
2022-08-30T13:28:49.148Z,18.27
2022-08-30T13:31:17.695Z,18.97
2022-08-30T13:33:47.337Z,16.93
2022-08-30T13:36:16.387Z,17.33
2022-08-30T13:38:44.517Z,21.33
2022-08-30T13:41:12.762Z,18.40
2022-08-30T13:46:29.097Z,16.70
2022-08-30T13:49:04.723Z,17.77
2022-08-30T13:51:33.149Z,18.07
2022-08-30T13:54:03.143Z,18.80
2022-08-30T13:56:32.651Z,18.03
2022-08-30T13:59:02.762Z,18.67
2022-08-30T14:01:31.533Z,19.97
2022-08-30T14:04:21.593Z,19.57
2022-08-30T14:09:38.839Z,20.13
2022-08-30T14:12:07.760Z,18.77
2022-08-30T14:14:42.546Z,19.60
2022-08-30T14:17:12.584Z,20.37
2022-08-30T14:19:42.266Z,18.50
2022-08-30T14:22:10.570Z,20.67
2022-08-30T14:24:38.801Z,20.50
2022-08-30T14:27:07.086Z,20.73
2022-08-30T14:29:36.146Z,19.90
2022-08-30T14:32:05.915Z,19.40
2022-08-30T14:34:34.218Z,18.77
2022-08-30T14:37:06.708Z,18.37
2022-08-30T14:39:35.254Z,18.40
2022-08-30T14:42:07.414Z,17.30
2022-08-30T14:44:55.299Z,18.63
2022-08-30T14:47:29.456Z,17.53
2022-08-30T14:50:00.867Z,19.07
2022-08-30T14:52:30.876Z,18.67
2022-08-30T14:55:09.065Z,17.03
2022-08-30T14:57:38.330Z,17.70
2022-08-30T15:00:09.075Z,16.80
2022-08-30T15:02:37.383Z,17.87
2022-08-30T15:05:06.925Z,17.17
2022-08-30T15:07:38.852Z,16.97
2022-08-30T15:10:08.579Z,19.07
2022-08-30T15:12:36.794Z,17.73
2022-08-30T15:15:05.287Z,17.93
2022-08-30T15:17:33.937Z,16.93
2022-08-30T15:20:02.442Z,18.90
2022-08-30T15:22:30.718Z,18.47
2022-08-30T15:25:01.657Z,18.43
2022-08-30T15:27:29.896Z,18.40
2022-08-30T15:29:58.795Z,19.33
2022-08-30T15:32:27.032Z,19.20
2022-08-30T15:34:56.034Z,18.03
2022-08-30T15:37:24.407Z,18.60
2022-08-30T15:39:53.263Z,20.47
2022-08-30T15:42:22.811Z,18.80
2022-08-30T15:44:51.982Z,20.47
2022-08-30T15:47:22.535Z,20.33
2022-08-30T15:49:56.578Z,19.10
2022-08-30T15:52:25.332Z,18.67
2022-08-30T15:54:53.639Z,18.80
2022-08-30T15:57:24.331Z,19.73
2022-08-30T15:59:54.489Z,18.73
2022-08-30T16:02:27.546Z,19.07
2022-08-30T16:04:56.283Z,18.63
2022-08-30T16:07:24.488Z,19.23
2022-08-30T16:09:54.127Z,19.57
2022-08-30T16:12:24.006Z,20.17
2022-08-30T16:14:52.353Z,19.87
2022-08-30T16:17:20.534Z,19.73
2022-08-30T16:19:48.663Z,19.30
2022-08-30T16:22:22.103Z,21.80
2022-08-30T16:24:51.509Z,22.03
2022-08-30T16:27:21.145Z,20.90
2022-08-30T16:29:50.864Z,21.90
2022-08-30T16:32:19.092Z,24.57
2022-08-30T16:34:47.535Z,21.93
2022-08-30T16:37:15.648Z,21.77
2022-08-30T16:39:46.708Z,23.00
2022-08-30T16:42:21.070Z,22.67
2022-08-30T16:44:51.331Z,21.03
2022-08-30T16:47:20.969Z,22.50
2022-08-30T16:49:49.111Z,21.67
2022-08-30T16:52:18.888Z,21.00
2022-08-30T16:54:47.551Z,21.23
2022-08-30T16:57:20.656Z,18.90
2022-08-30T16:59:52.400Z,19.43
2022-08-30T17:02:20.721Z,17.50
2022-08-30T17:04:52.863Z,20.57
2022-08-30T17:07:22.315Z,20.73
2022-08-30T17:09:51.212Z,21.77
2022-08-30T17:12:19.336Z,20.07
2022-08-30T17:14:47.617Z,18.10
2022-08-30T17:17:17.473Z,20.53
2022-08-30T17:19:50.177Z,22.50
2022-08-30T17:22:18.296Z,20.40
2022-08-30T17:24:49.706Z,25.50
2022-08-30T17:27:17.938Z,26.00
2022-08-30T17:29:46.053Z,25.37
2022-08-30T17:32:14.144Z,25.73
2022-08-30T17:34:43.886Z,28.20
2022-08-30T17:37:12.690Z,27.13
2022-08-30T17:39:41.083Z,26.70
2022-08-30T17:42:09.195Z,26.33
2022-08-30T17:44:38.087Z,26.57
2022-08-30T17:47:11.271Z,32.57
2022-08-30T17:49:39.963Z,27.03
2022-08-30T17:52:11.566Z,26.70
2022-08-30T17:54:40.768Z,24.47
2022-08-30T17:57:11.457Z,26.20
2022-08-30T17:59:40.786Z,25.40
2022-08-30T18:02:11.314Z,24.83
2022-08-30T18:04:41.753Z,26.10
2022-08-30T18:07:12.894Z,22.87
2022-08-30T18:09:41.760Z,23.70
2022-08-30T18:12:11.118Z,22.63
2022-08-30T18:14:39.654Z,22.50
2022-08-30T18:17:08.335Z,23.77
2022-08-30T18:19:46.107Z,23.63
2022-08-30T18:22:16.605Z,20.63
2022-08-30T18:24:46.011Z,20.67
2022-08-30T18:27:15.522Z,19.97
2022-08-30T18:29:43.694Z,21.87
2022-08-30T18:32:13.371Z,19.60
2022-08-30T18:34:42.910Z,18.43
2022-08-30T18:37:12.363Z,21.53
2022-08-30T18:39:42.809Z,21.07
2022-08-30T18:42:11.583Z,20.53
2022-08-30T18:44:40.505Z,19.23
2022-08-30T18:47:12.795Z,18.63
2022-08-30T18:49:41.175Z,21.87
2022-08-30T18:52:10.938Z,19.50
2022-08-30T18:54:40.884Z,18.70
2022-08-30T18:57:11.059Z,19.77
2022-08-30T18:59:39.482Z,20.33
2022-08-30T19:02:12.797Z,19.50
2022-08-30T19:04:42.841Z,18.50
2022-08-30T19:07:13.475Z,27.20
2022-08-30T19:09:43.308Z,26.63
2022-08-30T19:12:15.006Z,30.17
2022-08-30T19:14:44.252Z,35.70
2022-08-30T19:17:13.215Z,34.53
2022-08-30T19:19:47.437Z,29.43
2022-08-30T19:22:17.474Z,27.33
2022-08-30T19:24:47.236Z,26.67
2022-08-30T19:27:17.213Z,26.13
2022-08-30T19:29:45.435Z,28.10
2022-08-30T19:32:13.754Z,28.37
2022-08-30T19:34:42.234Z,28.67
2022-08-30T19:37:17.936Z,26.07
2022-08-30T19:39:47.238Z,26.30
2022-08-30T19:42:16.728Z,25.57
2022-08-30T19:44:44.916Z,25.60
2022-08-30T19:47:13.167Z,25.60
2022-08-30T19:49:41.334Z,26.80
2022-08-30T19:52:09.955Z,27.00
2022-08-30T19:54:38.645Z,27.13
2022-08-30T19:57:10.457Z,27.33
2022-08-30T19:59:40.310Z,27.03
2022-08-30T20:02:09.309Z,26.57
2022-08-30T20:04:42.484Z,27.23
2022-08-30T20:07:11.060Z,28.47
2022-08-30T20:09:39.184Z,30.57
2022-08-30T20:12:07.660Z,32.43
2022-08-30T20:14:35.756Z,32.57
2022-08-30T20:17:05.278Z,32.53
2022-08-30T20:19:40.104Z,33.17
2022-08-30T20:22:08.550Z,31.40
2022-08-30T20:24:37.007Z,31.70
2022-08-30T20:27:05.707Z,31.47
2022-08-30T20:29:34.500Z,31.87
2022-08-30T20:32:03.206Z,32.80
2022-08-30T20:34:33.695Z,31.13
2022-08-30T20:37:01.799Z,33.23
2022-08-30T20:39:30.035Z,26.17
2022-08-30T20:41:58.306Z,26.23
2022-08-30T20:44:26.490Z,28.20
2022-08-30T20:46:54.587Z,25.40
2022-08-30T20:49:22.869Z,28.07
2022-08-30T20:51:54.470Z,31.10
2022-08-30T20:54:22.844Z,29.90
2022-08-30T20:56:51.483Z,30.83
2022-08-30T20:59:21.073Z,28.13
2022-08-30T21:01:49.929Z,28.83
2022-08-30T21:04:18.869Z,30.53
2022-08-30T21:06:47.020Z,29.87
2022-08-30T21:09:16.640Z,34.37
2022-08-30T21:11:45.342Z,33.50
2022-08-30T21:14:13.607Z,33.07
2022-08-30T21:16:41.952Z,35.20
2022-08-30T21:19:10.255Z,34.70
2022-08-30T21:21:38.330Z,34.37
2022-08-30T21:24:10.100Z,35.00
2022-08-30T21:26:41.573Z,35.50
2022-08-30T21:29:09.992Z,38.60
2022-08-30T21:31:38.956Z,38.17
2022-08-30T21:34:08.493Z,38.20
2022-08-30T21:36:45.837Z,40.60
2022-08-30T21:39:17.369Z,42.13
2022-08-30T21:41:47.511Z,38.60
2022-08-30T21:44:18.991Z,38.10
2022-08-30T21:46:48.871Z,40.07
2022-08-30T21:49:19.150Z,39.53
2022-08-30T21:51:49.314Z,37.80
2022-08-30T21:54:18.224Z,36.27
2022-08-30T21:56:49.615Z,37.03
2022-08-30T21:59:19.463Z,36.43
2022-08-30T22:01:49.018Z,36.70
2022-08-30T22:04:17.619Z,35.87
2022-08-30T22:06:50.171Z,39.23
2022-08-30T22:09:20.915Z,40.77
2022-08-30T22:11:52.154Z,38.10
2022-08-30T22:14:21.294Z,36.73
2022-08-30T22:16:49.887Z,35.57
2022-08-30T22:19:23.147Z,36.27
2022-08-30T22:21:52.481Z,34.93
2022-08-30T22:24:23.598Z,32.27
2022-08-30T22:26:53.056Z,40.27
2022-08-30T22:29:21.859Z,42.20
2022-08-30T22:31:49.996Z,40.03
2022-08-30T22:34:18.166Z,37.20
2022-08-30T22:36:46.365Z,38.40
2022-08-30T22:39:14.577Z,35.07
2022-08-30T22:41:44.221Z,37.87
2022-08-30T22:44:14.256Z,39.87
2022-08-30T22:46:42.337Z,36.83
2022-08-30T22:49:11.630Z,34.53
2022-08-30T22:51:41.241Z,36.73
2022-08-30T22:54:10.882Z,34.20
2022-08-30T22:56:40.208Z,37.13
2022-08-30T22:59:08.798Z,32.23
2022-08-30T23:01:42.409Z,33.30
2022-08-30T23:04:12.227Z,29.90
2022-08-30T23:06:41.248Z,27.30
2022-08-30T23:09:15.015Z,28.20
2022-08-30T23:11:43.123Z,29.27
2022-08-30T23:14:11.352Z,28.60
2022-08-30T23:16:40.918Z,25.73
2022-08-30T23:19:09.139Z,28.50
2022-08-30T23:21:37.251Z,26.73
2022-08-30T23:24:23.355Z,23.07
2022-08-30T23:27:09.215Z,22.40
2022-08-30T23:29:57.243Z,23.27
2022-08-30T23:32:44.391Z,21.47
2022-08-30T23:35:31.275Z,21.80
2022-08-30T23:38:17.636Z,22.60
2022-08-30T23:41:03.411Z,23.27
2022-08-30T23:43:48.823Z,21.47
2022-08-30T23:46:34.307Z,22.33
2022-08-30T23:49:21.454Z,23.60
2022-08-30T23:52:07.298Z,21.60
2022-08-30T23:54:55.767Z,21.13
2022-08-30T23:57:43.641Z,20.60
